Terminal Aerodrome Forecast
Issued by NWS

Home | Current Version | Previous Version | Graphics & Text | Print | Product List | Glossary On
Versions: 1 2 3 4 5 6 7 8 9 10 11 12 13 14 15 16 17 18 19 20 21
764
FTUS43 KUNR 041724
TAFGCC
TAF
KGCC 041724Z 0418/0518 22012KT P6SM BKN200
     FM050600 23012G22KT P6SM OVC100
     FM050900 30015G25KT 5SM -SN OVC040
     FM051200 32018G28KT 2SM -SN BLSN OVC015=

USA.gov is the U.S. government's official web portal to all federal, state and local government web resources and services.